sensor_id;sensor_type;location;lat;lon;timestamp;pressure;altitude;pressure_sealevel;temperature;humidity
77019;BME280;66044;53.142;17.962;2023-02-01T00:00:50;99749.21;;;3.02;74.98
77019;BME280;66044;53.142;17.962;2023-02-01T00:03:25;99748.73;;;3.07;74.92
77019;BME280;66044;53.142;17.962;2023-02-01T00:05:58;99757.22;;;3.12;74.89
77019;BME280;66044;53.142;17.962;2023-02-01T00:08:25;99756.07;;;3.15;74.65
77019;BME280;66044;53.142;17.962;2023-02-01T00:11:05;99760.29;;;3.17;74.75
77019;BME280;66044;53.142;17.962;2023-02-01T00:13:33;99764.30;;;3.22;74.71
77019;BME280;66044;53.142;17.962;2023-02-01T00:16:14;99764.09;;;3.25;74.62
77019;BME280;66044;53.142;17.962;2023-02-01T00:18:42;99763.83;;;3.28;74.56
77019;BME280;66044;53.142;17.962;2023-02-01T00:21:13;99765.87;;;3.29;74.55
77019;BME280;66044;53.142;17.962;2023-02-01T00:23:39;99761.20;;;3.27;74.61
77019;BME280;66044;53.142;17.962;2023-02-01T00:26:07;99764.80;;;3.27;74.27
77019;BME280;66044;53.142;17.962;2023-02-01T00:28:33;99769.70;;;3.26;74.36
77019;BME280;66044;53.142;17.962;2023-02-01T00:31:01;99767.83;;;3.27;74.29
77019;BME280;66044;53.142;17.962;2023-02-01T00:33:28;99771.89;;;3.29;74.26
77019;BME280;66044;53.142;17.962;2023-02-01T00:35:58;99776.67;;;3.32;74.21
77019;BME280;66044;53.142;17.962;2023-02-01T00:38:25;99776.59;;;3.34;74.14
77019;BME280;66044;53.142;17.962;2023-02-01T00:40:51;99785.74;;;3.35;74.13
77019;BME280;66044;53.142;17.962;2023-02-01T00:43:17;99785.91;;;3.37;74.09
77019;BME280;66044;53.142;17.962;2023-02-01T00:45:45;99790.60;;;3.39;74.15
77019;BME280;66044;53.142;17.962;2023-02-01T00:48:11;99791.56;;;3.41;74.28
77019;BME280;66044;53.142;17.962;2023-02-01T00:50:41;99791.99;;;3.43;74.17
77019;BME280;66044;53.142;17.962;2023-02-01T00:53:09;99786.21;;;3.46;74.41
77019;BME280;66044;53.142;17.962;2023-02-01T00:55:35;99791.02;;;3.48;74.49
77019;BME280;66044;53.142;17.962;2023-02-01T00:58:00;99792.09;;;3.48;74.58
77019;BME280;66044;53.142;17.962;2023-02-01T01:00:27;99798.08;;;3.46;74.52
77019;BME280;66044;53.142;17.962;2023-02-01T01:02:55;99790.88;;;3.43;74.67
77019;BME280;66044;53.142;17.962;2023-02-01T01:05:21;99790.45;;;3.41;74.76
77019;BME280;66044;53.142;17.962;2023-02-01T01:07:47;99787.85;;;3.38;74.93
77019;BME280;66044;53.142;17.962;2023-02-01T01:10:13;99794.06;;;3.36;74.82
77019;BME280;66044;53.142;17.962;2023-02-01T01:12:38;99792.59;;;3.36;75.02
77019;BME280;66044;53.142;17.962;2023-02-01T01:15:05;99792.52;;;3.36;74.95
77019;BME280;66044;53.142;17.962;2023-02-01T01:17:31;99793.81;;;3.36;75.08
77019;BME280;66044;53.142;17.962;2023-02-01T01:19:57;99788.70;;;3.37;75.06
77019;BME280;66044;53.142;17.962;2023-02-01T01:22:23;99789.13;;;3.36;75.15
77019;BME280;66044;53.142;17.962;2023-02-01T01:24:48;99790.19;;;3.36;75.18
77019;BME280;66044;53.142;17.962;2023-02-01T01:27:14;99793.11;;;3.36;75.09
77019;BME280;66044;53.142;17.962;2023-02-01T01:29:40;99801.61;;;3.36;75.47
77019;BME280;66044;53.142;17.962;2023-02-01T01:32:06;99801.53;;;3.37;75.26
77019;BME280;66044;53.142;17.962;2023-02-01T01:34:32;99795.20;;;3.39;75.28
77019;BME280;66044;53.142;17.962;2023-02-01T01:36:57;99794.77;;;3.40;75.12
77019;BME280;66044;53.142;17.962;2023-02-01T01:39:23;99790.73;;;3.41;75.16
77019;BME280;66044;53.142;17.962;2023-02-01T01:41:49;99790.89;;;3.42;75.24
77019;BME280;66044;53.142;17.962;2023-02-01T01:47:18;99798.57;;;3.41;75.33
77019;BME280;66044;53.142;17.962;2023-02-01T01:49:44;99794.48;;;3.41;75.33
77019;BME280;66044;53.142;17.962;2023-02-01T01:52:10;99794.86;;;3.40;75.24
77019;BME280;66044;53.142;17.962;2023-02-01T01:54:50;99791.19;;;3.41;75.29
77019;BME280;66044;53.142;17.962;2023-02-01T01:57:21;99791.63;;;3.43;75.13
77019;BME280;66044;53.142;17.962;2023-02-01T02:00:09;99783.21;;;3.45;75.03
77019;BME280;66044;53.142;17.962;2023-02-01T02:02:37;99781.14;;;3.46;75.04
77019;BME280;66044;53.142;17.962;2023-02-01T02:05:05;99778.23;;;3.46;75.00
77019;BME280;66044;53.142;17.962;2023-02-01T02:07:35;99778.68;;;3.45;74.97
77019;BME280;66044;53.142;17.962;2023-02-01T02:10:05;99783.79;;;3.46;74.71
77019;BME280;66044;53.142;17.962;2023-02-01T02:12:32;99780.59;;;3.47;74.72
77019;BME280;66044;53.142;17.962;2023-02-01T02:14:58;99780.55;;;3.49;74.74
77019;BME280;66044;53.142;17.962;2023-02-01T02:27:00;99778.77;;;3.58;74.22
77019;BME280;66044;53.142;17.962;2023-02-01T02:29:49;99780.46;;;3.55;74.04
77019;BME280;66044;53.142;17.962;2023-02-01T02:35:30;99784.60;;;3.51;73.84
77019;BME280;66044;53.142;17.962;2023-02-01T02:38:05;99784.64;;;3.52;73.80
77019;BME280;66044;53.142;17.962;2023-02-01T02:43:22;99783.45;;;3.55;73.68
77019;BME280;66044;53.142;17.962;2023-02-01T02:46:24;99793.15;;;3.56;73.48
77019;BME280;66044;53.142;17.962;2023-02-01T02:49:15;99792.58;;;3.58;73.14
77019;BME280;66044;53.142;17.962;2023-02-01T02:51:55;99789.98;;;3.60;73.24
77019;BME280;66044;53.142;17.962;2023-02-01T02:54:45;99792.58;;;3.62;72.96
77019;BME280;66044;53.142;17.962;2023-02-01T02:57:39;99791.92;;;3.65;72.98
77019;BME280;66044;53.142;17.962;2023-02-01T03:00:32;99793.80;;;3.67;72.83
77019;BME280;66044;53.142;17.962;2023-02-01T03:03:17;99790.61;;;3.65;72.59
77019;BME280;66044;53.142;17.962;2023-02-01T03:06:02;99794.77;;;3.64;72.51
77019;BME280;66044;53.142;17.962;2023-02-01T03:08:29;99788.70;;;3.65;72.48
77019;BME280;66044;53.142;17.962;2023-02-01T03:14:01;99787.66;;;3.68;72.06
77019;BME280;66044;53.142;17.962;2023-02-01T03:16:35;99789.82;;;3.69;72.25
77019;BME280;66044;53.142;17.962;2023-02-01T03:21:43;99791.36;;;3.71;71.99
77019;BME280;66044;53.142;17.962;2023-02-01T03:27:18;99786.84;;;3.74;71.76
77019;BME280;66044;53.142;17.962;2023-02-01T03:32:27;99780.44;;;3.72;71.78
77019;BME280;66044;53.142;17.962;2023-02-01T03:34:53;99783.49;;;3.74;71.79
77019;BME280;66044;53.142;17.962;2023-02-01T03:37:26;99785.31;;;3.75;71.59
77019;BME280;66044;53.142;17.962;2023-02-01T03:42:33;99787.48;;;3.76;71.41
77019;BME280;66044;53.142;17.962;2023-02-01T03:45:11;99782.20;;;3.75;71.43
77019;BME280;66044;53.142;17.962;2023-02-01T03:47:43;99787.39;;;3.76;71.27
77019;BME280;66044;53.142;17.962;2023-02-01T03:50:15;99792.60;;;3.77;71.25
77019;BME280;66044;53.142;17.962;2023-02-01T03:52:42;99786.23;;;3.79;71.21
77019;BME280;66044;53.142;17.962;2023-02-01T03:55:11;99787.97;;;3.80;71.30
77019;BME280;66044;53.142;17.962;2023-02-01T03:57:44;99787.52;;;3.78;71.11
77019;BME280;66044;53.142;17.962;2023-02-01T04:00:16;99777.10;;;3.76;71.08
77019;BME280;66044;53.142;17.962;2023-02-01T04:02:43;99775.16;;;3.76;71.07
77019;BME280;66044;53.142;17.962;2023-02-01T04:05:09;99777.95;;;3.75;70.98
77019;BME280;66044;53.142;17.962;2023-02-01T04:07:34;99772.81;;;3.74;71.08
77019;BME280;66044;53.142;17.962;2023-02-01T04:10:00;99776.25;;;3.75;71.05
77019;BME280;66044;53.142;17.962;2023-02-01T04:12:26;99784.85;;;3.75;71.03
77019;BME280;66044;53.142;17.962;2023-02-01T04:14:52;99782.41;;;3.75;71.11
77019;BME280;66044;53.142;17.962;2023-02-01T04:17:18;99785.07;;;3.76;71.17
77019;BME280;66044;53.142;17.962;2023-02-01T04:19:44;99772.77;;;3.78;71.17
77019;BME280;66044;53.142;17.962;2023-02-01T04:22:09;99772.41;;;3.77;71.06
77019;BME280;66044;53.142;17.962;2023-02-01T04:24:35;99765.55;;;3.73;71.32
77019;BME280;66044;53.142;17.962;2023-02-01T04:27:02;99767.10;;;3.70;71.12
77019;BME280;66044;53.142;17.962;2023-02-01T04:29:28;99764.02;;;3.68;71.35
77019;BME280;66044;53.142;17.962;2023-02-01T04:31:54;99760.72;;;3.71;71.35
77019;BME280;66044;53.142;17.962;2023-02-01T04:34:19;99770.05;;;3.74;71.35
77019;BME280;66044;53.142;17.962;2023-02-01T04:36:46;99764.41;;;3.75;71.60
77019;BME280;66044;53.142;17.962;2023-02-01T04:39:11;99771.47;;;3.75;71.83
77019;BME280;66044;53.142;17.962;2023-02-01T04:41:37;99773.98;;;3.74;71.86
77019;BME280;66044;53.142;17.962;2023-02-01T04:44:03;99766.14;;;3.73;71.82
77019;BME280;66044;53.142;17.962;2023-02-01T04:46:29;99763.17;;;3.73;71.85
77019;BME280;66044;53.142;17.962;2023-02-01T04:48:55;99758.09;;;3.71;71.66
77019;BME280;66044;53.142;17.962;2023-02-01T04:51:20;99764.20;;;3.69;71.78
77019;BME280;66044;53.142;17.962;2023-02-01T04:53:47;99762.05;;;3.68;71.74
77019;BME280;66044;53.142;17.962;2023-02-01T04:56:13;99763.36;;;3.69;71.80
77019;BME280;66044;53.142;17.962;2023-02-01T04:58:39;99766.98;;;3.70;71.76
77019;BME280;66044;53.142;17.962;2023-02-01T05:01:06;99769.66;;;3.72;71.84
77019;BME280;66044;53.142;17.962;2023-02-01T05:03:32;99771.63;;;3.75;71.69
77019;BME280;66044;53.142;17.962;2023-02-01T05:05:58;99769.26;;;3.76;71.64
77019;BME280;66044;53.142;17.962;2023-02-01T05:08:24;99765.07;;;3.77;71.56
77019;BME280;66044;53.142;17.962;2023-02-01T05:10:52;99768.98;;;3.78;71.40
77019;BME280;66044;53.142;17.962;2023-02-01T05:13:18;99769.18;;;3.79;71.41
77019;BME280;66044;53.142;17.962;2023-02-01T05:16:03;99763.45;;;3.81;71.33
77019;BME280;66044;53.142;17.962;2023-02-01T05:18:29;99753.89;;;3.83;71.24
77019;BME280;66044;53.142;17.962;2023-02-01T05:20:55;99748.10;;;3.84;71.10
77019;BME280;66044;53.142;17.962;2023-02-01T05:23:21;99737.15;;;3.83;71.04
77019;BME280;66044;53.142;17.962;2023-02-01T05:25:47;99738.99;;;3.82;71.20
77019;BME280;66044;53.142;17.962;2023-02-01T05:28:13;99738.02;;;3.82;71.06
77019;BME280;66044;53.142;17.962;2023-02-01T05:30:38;99745.71;;;3.83;71.16
77019;BME280;66044;53.142;17.962;2023-02-01T05:33:04;99740.84;;;3.82;71.12
77019;BME280;66044;53.142;17.962;2023-02-01T05:35:30;99738.73;;;3.80;71.09
77019;BME280;66044;53.142;17.962;2023-02-01T05:37:56;99739.39;;;3.77;71.28
77019;BME280;66044;53.142;17.962;2023-02-01T05:40:22;99744.31;;;3.73;71.11
77019;BME280;66044;53.142;17.962;2023-02-01T05:42:47;99753.16;;;3.71;71.33
77019;BME280;66044;53.142;17.962;2023-02-01T05:45:13;99749.14;;;3.68;71.35
77019;BME280;66044;53.142;17.962;2023-02-01T05:47:39;99757.54;;;3.66;71.41
77019;BME280;66044;53.142;17.962;2023-02-01T05:50:06;99752.64;;;3.64;71.60
77019;BME280;66044;53.142;17.962;2023-02-01T05:52:32;99748.77;;;3.60;71.59
77019;BME280;66044;53.142;17.962;2023-02-01T05:54:58;99767.95;;;3.57;71.78
77019;BME280;66044;53.142;17.962;2023-02-01T05:57:24;99775.55;;;3.57;71.89
77019;BME280;66044;53.142;17.962;2023-02-01T05:59:49;99776.67;;;3.59;71.90
77019;BME280;66044;53.142;17.962;2023-02-01T06:02:16;99777.77;;;3.62;71.94
77019;BME280;66044;53.142;17.962;2023-02-01T06:04:42;99776.34;;;3.63;71.92
77019;BME280;66044;53.142;17.962;2023-02-01T06:07:08;99779.14;;;3.65;71.82
77019;BME280;66044;53.142;17.962;2023-02-01T06:09:36;99780.10;;;3.64;72.00
77019;BME280;66044;53.142;17.962;2023-02-01T06:12:03;99777.55;;;3.65;71.91
77019;BME280;66044;53.142;17.962;2023-02-01T06:14:29;99771.27;;;3.65;71.96
77019;BME280;66044;53.142;17.962;2023-02-01T06:16:55;99772.69;;;3.66;72.03
77019;BME280;66044;53.142;17.962;2023-02-01T06:19:22;99777.86;;;3.65;71.89
77019;BME280;66044;53.142;17.962;2023-02-01T06:21:48;99775.55;;;3.63;71.87
77019;BME280;66044;53.142;17.962;2023-02-01T06:24:14;99772.55;;;3.60;71.77
77019;BME280;66044;53.142;17.962;2023-02-01T06:26:40;99776.84;;;3.58;71.90
77019;BME280;66044;53.142;17.962;2023-02-01T06:29:07;99774.30;;;3.58;71.87
77019;BME280;66044;53.142;17.962;2023-02-01T06:31:33;99779.11;;;3.59;71.96
77019;BME280;66044;53.142;17.962;2023-02-01T06:33:59;99779.30;;;3.62;71.82
77019;BME280;66044;53.142;17.962;2023-02-01T06:36:25;99779.31;;;3.64;71.81
77019;BME280;66044;53.142;17.962;2023-02-01T06:38:50;99780.39;;;3.65;71.76
77019;BME280;66044;53.142;17.962;2023-02-01T06:41:16;99779.04;;;3.67;71.76
77019;BME280;66044;53.142;17.962;2023-02-01T06:43:42;99769.68;;;3.67;71.68
77019;BME280;66044;53.142;17.962;2023-02-01T06:46:11;99772.36;;;3.70;71.49
77019;BME280;66044;53.142;17.962;2023-02-01T06:48:38;99774.91;;;3.72;71.46
77019;BME280;66044;53.142;17.962;2023-02-01T06:51:04;99777.55;;;3.73;71.50
77019;BME280;66044;53.142;17.962;2023-02-01T06:53:30;99780.66;;;3.76;71.42
77019;BME280;66044;53.142;17.962;2023-02-01T06:55:58;99780.98;;;3.78;71.45
77019;BME280;66044;53.142;17.962;2023-02-01T06:58:31;99781.39;;;3.79;71.38
77019;BME280;66044;53.142;17.962;2023-02-01T07:01:03;99786.39;;;3.79;71.15
77019;BME280;66044;53.142;17.962;2023-02-01T07:03:29;99779.47;;;3.80;71.18
77019;BME280;66044;53.142;17.962;2023-02-01T07:05:56;99782.27;;;3.82;71.08
77019;BME280;66044;53.142;17.962;2023-02-01T07:08:29;99785.05;;;3.84;71.07
77019;BME280;66044;53.142;17.962;2023-02-01T07:10:55;99785.80;;;3.83;70.98
77019;BME280;66044;53.142;17.962;2023-02-01T07:13:21;99782.15;;;3.83;70.86
77019;BME280;66044;53.142;17.962;2023-02-01T07:15:47;99784.31;;;3.82;70.96
77019;BME280;66044;53.142;17.962;2023-02-01T07:18:15;99780.49;;;3.83;70.85
77019;BME280;66044;53.142;17.962;2023-02-01T07:20:42;99780.05;;;3.84;70.80
77019;BME280;66044;53.142;17.962;2023-02-01T07:23:11;99780.00;;;3.84;70.77
77019;BME280;66044;53.142;17.962;2023-02-01T07:25:37;99778.52;;;3.88;70.70
77019;BME280;66044;53.142;17.962;2023-02-01T07:28:02;99775.77;;;4.03;70.43
77019;BME280;66044;53.142;17.962;2023-02-01T07:30:28;99776.59;;;4.20;70.27
77019;BME280;66044;53.142;17.962;2023-02-01T07:32:54;99783.33;;;4.36;70.23
77019;BME280;66044;53.142;17.962;2023-02-01T07:35:20;99780.20;;;4.43;69.90
77019;BME280;66044;53.142;17.962;2023-02-01T07:37:45;99779.73;;;4.48;70.05
77019;BME280;66044;53.142;17.962;2023-02-01T07:40:11;99778.75;;;4.56;69.69
77019;BME280;66044;53.142;17.962;2023-02-01T07:42:37;99780.03;;;4.71;69.39
77019;BME280;66044;53.142;17.962;2023-02-01T07:45:03;99780.85;;;4.97;69.10
77019;BME280;66044;53.142;17.962;2023-02-01T07:47:30;99779.69;;;5.44;68.51
77019;BME280;66044;53.142;17.962;2023-02-01T07:49:55;99780.12;;;6.22;67.88
77019;BME280;66044;53.142;17.962;2023-02-01T07:52:21;99782.61;;;7.10;66.98
77019;BME280;66044;53.142;17.962;2023-02-01T07:54:47;99785.02;;;7.23;66.54
77019;BME280;66044;53.142;17.962;2023-02-01T07:57:13;99784.22;;;7.21;66.45
77019;BME280;66044;53.142;17.962;2023-02-01T07:59:38;99791.36;;;7.31;65.57
77019;BME280;66044;53.142;17.962;2023-02-01T08:02:27;99794.61;;;7.57;65.14
77019;BME280;66044;53.142;17.962;2023-02-01T08:04:53;99794.05;;;7.33;65.04
77019;BME280;66044;53.142;17.962;2023-02-01T08:07:18;99792.96;;;7.09;65.02
77019;BME280;66044;53.142;17.962;2023-02-01T08:09:44;99791.06;;;6.87;64.86
77019;BME280;66044;53.142;17.962;2023-02-01T08:12:10;99790.23;;;6.63;64.72
77019;BME280;66044;53.142;17.962;2023-02-01T08:14:36;99797.75;;;6.45;65.03
77019;BME280;66044;53.142;17.962;2023-02-01T08:17:01;99800.45;;;6.29;64.84
77019;BME280;66044;53.142;17.962;2023-02-01T08:19:27;99803.35;;;6.20;64.93
77019;BME280;66044;53.142;17.962;2023-02-01T08:21:53;99802.98;;;6.11;65.09
77019;BME280;66044;53.142;17.962;2023-02-01T08:24:18;99811.79;;;6.02;65.13
77019;BME280;66044;53.142;17.962;2023-02-01T08:26:44;99813.64;;;5.95;65.43
77019;BME280;66044;53.142;17.962;2023-02-01T08:29:10;99811.77;;;5.92;65.43
77019;BME280;66044;53.142;17.962;2023-02-01T08:31:38;99814.50;;;5.94;65.59
77019;BME280;66044;53.142;17.962;2023-02-01T08:34:06;99812.34;;;5.93;65.62
77019;BME280;66044;53.142;17.962;2023-02-01T08:36:34;99809.23;;;5.96;65.63
77019;BME280;66044;53.142;17.962;2023-02-01T08:39:00;99810.60;;;6.00;65.83
77019;BME280;66044;53.142;17.962;2023-02-01T08:41:28;99824.10;;;6.10;65.78
77019;BME280;66044;53.142;17.962;2023-02-01T08:43:56;99822.13;;;6.13;65.83
77019;BME280;66044;53.142;17.962;2023-02-01T08:46:22;99823.58;;;6.08;65.80
77019;BME280;66044;53.142;17.962;2023-02-01T08:48:48;99829.01;;;5.97;65.92
77019;BME280;66044;53.142;17.962;2023-02-01T08:51:17;99824.33;;;5.84;66.08
77019;BME280;66044;53.142;17.962;2023-02-01T08:53:43;99831.17;;;5.72;66.28
77019;BME280;66044;53.142;17.962;2023-02-01T08:56:11;99828.39;;;5.66;66.29
77019;BME280;66044;53.142;17.962;2023-02-01T08:58:38;99827.29;;;5.65;66.59
77019;BME280;66044;53.142;17.962;2023-02-01T09:01:05;99833.95;;;5.74;66.73
77019;BME280;66044;53.142;17.962;2023-02-01T09:03:31;99837.60;;;5.81;66.65
77019;BME280;66044;53.142;17.962;2023-02-01T09:06:09;99836.07;;;5.81;66.58
77019;BME280;66044;53.142;17.962;2023-02-01T09:08:37;99842.00;;;5.77;66.66
77019;BME280;66044;53.142;17.962;2023-02-01T09:11:06;99836.76;;;5.72;66.93
77019;BME280;66044;53.142;17.962;2023-02-01T09:13:33;99839.14;;;5.68;67.09
77019;BME280;66044;53.142;17.962;2023-02-01T09:15:59;99838.86;;;5.61;67.38
77019;BME280;66044;53.142;17.962;2023-02-01T09:18:26;99832.77;;;5.51;67.47
77019;BME280;66044;53.142;17.962;2023-02-01T09:20:52;99831.07;;;5.44;67.86
77019;BME280;66044;53.142;17.962;2023-02-01T09:23:17;99827.02;;;5.38;67.96
77019;BME280;66044;53.142;17.962;2023-02-01T09:25:46;99825.41;;;5.32;68.24
77019;BME280;66044;53.142;17.962;2023-02-01T09:28:16;99821.05;;;5.21;68.42
77019;BME280;66044;53.142;17.962;2023-02-01T09:30:42;99818.23;;;5.10;68.49
77019;BME280;66044;53.142;17.962;2023-02-01T09:33:08;99816.70;;;5.09;68.90
77019;BME280;66044;53.142;17.962;2023-02-01T09:35:34;99815.09;;;5.17;68.85
77019;BME280;66044;53.142;17.962;2023-02-01T09:38:00;99807.53;;;5.20;68.91
77019;BME280;66044;53.142;17.962;2023-02-01T09:40:25;99811.99;;;5.18;68.91
77019;BME280;66044;53.142;17.962;2023-02-01T09:48:39;99792.91;;;5.41;69.11
77019;BME280;66044;53.142;17.962;2023-02-01T09:51:18;99793.07;;;5.59;68.80
77019;BME280;66044;53.142;17.962;2023-02-01T09:53:58;99797.65;;;5.61;68.88
77019;BME280;66044;53.142;17.962;2023-02-01T09:56:33;99796.42;;;5.62;68.78
77019;BME280;66044;53.142;17.962;2023-02-01T10:01:53;99791.32;;;5.67;68.61
77019;BME280;66044;53.142;17.962;2023-02-01T10:04:19;99790.81;;;5.85;68.42
77019;BME280;66044;53.142;17.962;2023-02-01T10:26:16;99783.73;;;7.07;66.57
77019;BME280;66044;53.142;17.962;2023-02-01T10:28:46;99781.89;;;7.12;66.03
77019;BME280;66044;53.142;17.962;2023-02-01T10:31:14;99780.58;;;7.06;66.19
77019;BME280;66044;53.142;17.962;2023-02-01T10:33:44;99783.58;;;6.97;65.70
77019;BME280;66044;53.142;17.962;2023-02-01T10:39:03;99791.69;;;6.91;65.65
77019;BME280;66044;53.142;17.962;2023-02-01T10:41:33;99793.45;;;6.84;65.56
77019;BME280;66044;53.142;17.962;2023-02-01T10:44:05;99796.09;;;6.68;65.65
77019;BME280;66044;53.142;17.962;2023-02-01T10:46:34;99787.23;;;6.50;65.85
77019;BME280;66044;53.142;17.962;2023-02-01T10:49:03;99783.95;;;6.41;66.19
77019;BME280;66044;53.142;17.962;2023-02-01T10:54:21;99776.73;;;6.25;66.35
77019;BME280;66044;53.142;17.962;2023-02-01T10:56:57;99777.48;;;6.22;66.28
77019;BME280;66044;53.142;17.962;2023-02-01T10:59:28;99777.30;;;6.22;66.30
77019;BME280;66044;53.142;17.962;2023-02-01T11:02:00;99768.47;;;6.24;66.32
77019;BME280;66044;53.142;17.962;2023-02-01T11:04:30;99766.64;;;6.20;66.33
77019;BME280;66044;53.142;17.962;2023-02-01T11:07:06;99766.61;;;6.15;66.47
77019;BME280;66044;53.142;17.962;2023-02-01T11:09:38;99761.36;;;6.12;66.60
77019;BME280;66044;53.142;17.962;2023-02-01T11:12:07;99767.17;;;6.09;66.66
77019;BME280;66044;53.142;17.962;2023-02-01T11:14:47;99764.92;;;6.08;66.81
77019;BME280;66044;53.142;17.962;2023-02-01T11:17:26;99761.80;;;6.08;66.83
77019;BME280;66044;53.142;17.962;2023-02-01T11:20:00;99754.57;;;5.99;67.06
77019;BME280;66044;53.142;17.962;2023-02-01T11:22:31;99753.91;;;5.95;67.09
77019;BME280;66044;53.142;17.962;2023-02-01T11:24:59;99753.43;;;5.93;67.25
77019;BME280;66044;53.142;17.962;2023-02-01T11:27:27;99747.61;;;5.95;67.20
77019;BME280;66044;53.142;17.962;2023-02-01T11:29:58;99744.86;;;6.02;67.17
77019;BME280;66044;53.142;17.962;2023-02-01T11:32:26;99744.95;;;6.12;67.18
77019;BME280;66044;53.142;17.962;2023-02-01T11:34:56;99750.80;;;6.14;67.22
77019;BME280;66044;53.142;17.962;2023-02-01T11:37:27;99747.48;;;6.17;67.01
77019;BME280;66044;53.142;17.962;2023-02-01T11:40:01;99748.23;;;6.19;67.14
77019;BME280;66044;53.142;17.962;2023-02-01T11:42:29;99749.11;;;6.20;67.23
77019;BME280;66044;53.142;17.962;2023-02-01T11:45:19;99742.97;;;6.20;67.12
77019;BME280;66044;53.142;17.962;2023-02-01T11:47:46;99746.46;;;6.24;67.15
77019;BME280;66044;53.142;17.962;2023-02-01T11:50:24;99744.05;;;6.32;67.08
77019;BME280;66044;53.142;17.962;2023-02-01T11:53:25;99742.58;;;6.39;67.06
77019;BME280;66044;53.142;17.962;2023-02-01T11:56:15;99738.98;;;6.50;66.71
77019;BME280;66044;53.142;17.962;2023-02-01T12:07:14;99735.34;;;6.84;65.88
77019;BME280;66044;53.142;17.962;2023-02-01T12:10:06;99734.52;;;6.85;65.81
77019;BME280;66044;53.142;17.962;2023-02-01T12:13:13;99737.86;;;6.84;65.87
77019;BME280;66044;53.142;17.962;2023-02-01T12:19:00;99730.56;;;6.87;65.77
77019;BME280;66044;53.142;17.962;2023-02-01T12:22:00;99725.45;;;6.82;65.51
77019;BME280;66044;53.142;17.962;2023-02-01T12:25:06;99725.61;;;6.69;65.17
77019;BME280;66044;53.142;17.962;2023-02-01T12:33:01;99725.20;;;6.31;65.69
77019;BME280;66044;53.142;17.962;2023-02-01T12:35:44;99721.54;;;6.29;66.09
77019;BME280;66044;53.142;17.962;2023-02-01T12:43:49;99723.77;;;6.27;66.08
77019;BME280;66044;53.142;17.962;2023-02-01T12:46:32;99718.91;;;6.17;65.92
77019;BME280;66044;53.142;17.962;2023-02-01T12:51:43;99719.10;;;5.98;66.22
77019;BME280;66044;53.142;17.962;2023-02-01T12:54:37;99722.25;;;5.93;66.29
77019;BME280;66044;53.142;17.962;2023-02-01T12:57:10;99725.05;;;5.91;66.43
77019;BME280;66044;53.142;17.962;2023-02-01T12:59:44;99728.04;;;5.91;66.57
77019;BME280;66044;53.142;17.962;2023-02-01T13:02:28;99721.88;;;5.90;66.61
77019;BME280;66044;53.142;17.962;2023-02-01T13:05:12;99728.41;;;5.86;66.68
77019;BME280;66044;53.142;17.962;2023-02-01T13:07:42;99733.09;;;5.83;66.75
77019;BME280;66044;53.142;17.962;2023-02-01T13:15:47;99727.45;;;5.85;66.72
77019;BME280;66044;53.142;17.962;2023-02-01T13:18:19;99734.76;;;5.85;66.86
77019;BME280;66044;53.142;17.962;2023-02-01T13:21:06;99738.60;;;5.82;66.91
77019;BME280;66044;53.142;17.962;2023-02-01T13:23:37;99733.96;;;5.79;66.71
77019;BME280;66044;53.142;17.962;2023-02-01T13:26:05;99738.80;;;5.74;66.96
77019;BME280;66044;53.142;17.962;2023-02-01T13:29:02;99742.06;;;5.71;66.95
77019;BME280;66044;53.142;17.962;2023-02-01T13:37:33;99741.33;;;5.67;67.05
77019;BME280;66044;53.142;17.962;2023-02-01T13:43:22;99739.47;;;5.65;67.28
77019;BME280;66044;53.142;17.962;2023-02-01T13:45:53;99738.02;;;5.63;67.32
77019;BME280;66044;53.142;17.962;2023-02-01T13:48:39;99735.54;;;5.60;67.32
77019;BME280;66044;53.142;17.962;2023-02-01T13:51:09;99738.11;;;5.58;67.50
77019;BME280;66044;53.142;17.962;2023-02-01T13:53:44;99737.41;;;5.60;67.46
77019;BME280;66044;53.142;17.962;2023-02-01T13:56:19;99742.28;;;5.61;67.47
77019;BME280;66044;53.142;17.962;2023-02-01T13:58:49;99747.64;;;5.62;67.59
77019;BME280;66044;53.142;17.962;2023-02-01T14:03:52;99757.44;;;5.57;67.66
77019;BME280;66044;53.142;17.962;2023-02-01T14:11:53;99756.02;;;5.53;67.82
77019;BME280;66044;53.142;17.962;2023-02-01T14:19:26;99747.90;;;5.47;67.93
77019;BME280;66044;53.142;17.962;2023-02-01T14:24:30;99745.55;;;5.47;67.89
77019;BME280;66044;53.142;17.962;2023-02-01T14:26:59;99749.95;;;5.46;67.83
77019;BME280;66044;53.142;17.962;2023-02-01T14:29:35;99751.21;;;5.47;67.89
77019;BME280;66044;53.142;17.962;2023-02-01T14:37:24;99757.39;;;5.41;67.77
77019;BME280;66044;53.142;17.962;2023-02-01T14:39:58;99755.00;;;5.37;67.75
77019;BME280;66044;53.142;17.962;2023-02-01T14:42:28;99755.07;;;5.34;67.67
77019;BME280;66044;53.142;17.962;2023-02-01T14:48:42;99755.00;;;5.31;67.91
77019;BME280;66044;53.142;17.962;2023-02-01T14:50:43;99755.81;;;5.30;67.87
77019;BME280;66044;53.142;17.962;2023-02-01T14:55:50;99758.88;;;5.24;67.86
77019;BME280;66044;53.142;17.962;2023-02-01T14:58:56;99755.65;;;5.18;67.81
77019;BME280;66044;53.142;17.962;2023-02-01T15:01:35;99755.09;;;5.16;67.70
77019;BME280;66044;53.142;17.962;2023-02-01T15:04:15;99752.48;;;5.14;67.71
77019;BME280;66044;53.142;17.962;2023-02-01T15:06:49;99749.37;;;5.12;67.96
77019;BME280;66044;53.142;17.962;2023-02-01T15:14:28;99759.55;;;5.07;68.10
77019;BME280;66044;53.142;17.962;2023-02-01T15:16:55;99753.13;;;5.04;68.01
77019;BME280;66044;53.142;17.962;2023-02-01T15:19:26;99753.98;;;5.03;67.90
77019;BME280;66044;53.142;17.962;2023-02-01T15:21:55;99754.70;;;5.02;68.05
77019;BME280;66044;53.142;17.962;2023-02-01T15:24:26;99757.19;;;5.00;68.13
77019;BME280;66044;53.142;17.962;2023-02-01T15:26:54;99762.44;;;4.98;68.29
77019;BME280;66044;53.142;17.962;2023-02-01T15:29:22;99762.67;;;4.97;68.49
77019;BME280;66044;53.142;17.962;2023-02-01T15:31:52;99764.29;;;4.94;68.51
77019;BME280;66044;53.142;17.962;2023-02-01T15:34:19;99761.58;;;4.90;68.61